Time;durP1;ratioP1;P1;durP2;ratioP2;P2;SDS_P1;SDS_P2;PMS_P1;PMS_P2;Temp;Humidity;BMP_temperature;BMP_pressure;BME280_temperature;BME280_humidity;BME280_pressure;Samples;Min_cycle;Max_cycle;Signal;HPM_P1;HPM_P2
2022/12/12 00:01:59;;;;;;;13.63;7.13;;;9.20;99.90;;;;;;4813243;29;20049;-94
2022/12/12 00:04:26;;;;;;;34.13;9.77;;;9.30;99.90;;;;;;4715197;30;20040;-93
2022/12/12 00:06:52;;;;;;;20.05;7.32;;;9.30;99.90;;;;;;4737827;30;20451;-90
2022/12/12 00:09:19;;;;;;;13.60;6.82;;;9.40;99.90;;;;;;4736732;30;20048;-90
2022/12/12 00:11:51;;;;;;;19.25;7.50;;;9.40;99.90;;;;;;4722631;30;20063;-90
2022/12/12 00:14:18;;;;;;;18.25;7.07;;;9.40;99.90;;;;;;4722653;30;20037;-89
2022/12/12 00:16:47;;;;;;;18.40;6.95;;;9.50;99.90;;;;;;4722479;30;20056;-89
2022/12/12 00:19:14;;;;;;;11.98;6.90;;;9.50;99.90;;;;;;4722183;30;20049;-90
2022/12/12 00:21:41;;;;;;;17.80;7.35;;;9.50;99.90;;;;;;4736929;30;20500;-90
2022/12/12 00:24:08;;;;;;;18.52;7.78;;;9.40;99.90;;;;;;4722427;30;20040;-90
2022/12/12 00:26:34;;;;;;;15.95;7.07;;;9.30;99.90;;;;;;4737233;30;20048;-90
2022/12/12 00:29:04;;;;;;;21.00;7.75;;;9.20;99.90;;;;;;4722375;30;20032;-91
2022/12/12 00:31:31;;;;;;;16.88;7.38;;;9.20;99.90;;;;;;4736993;30;20033;-91
2022/12/12 00:33:57;;;;;;;21.67;7.53;;;9.20;99.90;;;;;;4722319;30;20119;-90
2022/12/12 00:36:27;;;;;;;23.98;7.97;;;9.20;99.90;;;;;;4736872;30;20510;-91
2022/12/12 00:39:03;;;;;;;21.27;7.85;;;9.20;99.90;;;;;;4736743;30;20044;-90
2022/12/12 00:41:33;;;;;;;19.80;8.02;;;9.20;99.90;;;;;;4736866;30;20554;-88
2022/12/12 00:44:05;;;;;;;23.42;8.30;;;9.30;99.90;;;;;;4722049;30;20044;-90
2022/12/12 00:46:31;;;;;;;21.73;8.68;;;9.30;99.90;;;;;;4722217;30;20065;-89
2022/12/12 00:49:00;;;;;;;23.15;8.77;;;9.30;99.90;;;;;;4722102;30;20059;-91
2022/12/12 00:51:29;;;;;;;17.73;8.75;;;9.30;99.90;;;;;;4736579;29;20045;-89
2022/12/12 00:53:57;;;;;;;18.70;8.90;;;9.40;99.90;;;;;;4814537;29;20121;-89
2022/12/12 00:56:26;;;;;;;25.02;8.70;;;9.40;99.90;;;;;;4814561;29;20034;-92
2022/12/12 00:58:53;;;;;;;15.38;7.60;;;9.50;99.90;;;;;;4814464;29;20041;-90
2022/12/12 01:01:33;;;;;;;19.70;7.93;;;9.50;99.90;;;;;;4829430;29;20111;-89
2022/12/12 01:04:00;;;;;;;15.35;8.00;;;9.60;99.90;;;;;;4829605;29;20034;-89
2022/12/12 01:06:27;;;;;;;20.23;8.10;;;9.60;99.90;;;;;;4815179;29;20039;-90
2022/12/12 01:08:57;;;;;;;17.17;7.50;;;9.60;99.90;;;;;;4815245;29;20118;-91
2022/12/12 01:11:24;;;;;;;14.35;7.57;;;9.50;99.90;;;;;;4814275;29;20090;-91
2022/12/12 01:13:52;;;;;;;16.35;7.35;;;9.40;99.90;;;;;;4829128;29;20030;-90
2022/12/12 01:16:19;;;;;;;17.00;7.90;;;9.30;99.90;;;;;;4814293;29;20062;-91
2022/12/12 01:18:46;;;;;;;19.15;7.55;;;9.30;99.90;;;;;;4829233;29;20090;-89
2022/12/12 01:21:16;;;;;;;15.80;8.13;;;9.10;99.90;;;;;;4814231;29;20411;-89
2022/12/12 01:23:43;;;;;;;19.35;7.40;;;9.20;99.90;;;;;;4829102;29;20030;-90
2022/12/12 01:26:15;;;;;;;20.48;7.72;;;9.10;99.90;;;;;;4814032;29;20041;-89
2022/12/12 01:28:43;;;;;;;20.33;8.10;;;9.20;99.90;;;;;;4813922;29;20037;-89
2022/12/12 01:31:12;;;;;;;18.10;7.80;;;9.20;99.90;;;;;;4813998;29;20044;-91
2022/12/12 01:33:44;;;;;;;20.55;7.75;;;9.20;99.90;;;;;;4813886;29;20033;-91
2022/12/12 01:36:22;;;;;;;23.30;8.27;;;9.30;99.90;;;;;;4813841;29;20053;-91
2022/12/12 01:38:53;;;;;;;17.38;6.97;;;9.30;99.90;;;;;;4828919;29;20034;-89
2022/12/12 01:41:20;;;;;;;19.35;6.78;;;9.40;99.90;;;;;;4828863;29;20050;-90
2022/12/12 01:43:47;;;;;;;17.98;7.10;;;9.40;99.90;;;;;;4813672;29;20034;-91
2022/12/12 01:46:43;;;;;;;21.42;7.20;;;9.50;99.90;;;;;;4813685;29;20041;-90
2022/12/12 01:49:26;;;;;;;17.42;6.97;;;9.50;99.90;;;;;;4813481;29;20034;-90
2022/12/12 01:51:58;;;;;;;15.98;6.70;;;9.60;99.90;;;;;;4813704;29;20049;-91
2022/12/12 01:54:31;;;;;;;12.90;6.60;;;9.60;99.90;;;;;;4813555;29;20040;-90
2022/12/12 01:57:07;;;;;;;20.65;7.50;;;9.50;99.90;;;;;;4813713;29;20080;-90
2022/12/12 01:59:34;;;;;;;19.77;7.82;;;9.40;99.90;;;;;;4813734;29;20045;-90
2022/12/12 02:02:01;;;;;;;14.98;7.45;;;9.40;99.90;;;;;;4813210;29;20037;-89
2022/12/12 02:04:27;;;;;;;13.20;7.50;;;9.30;99.90;;;;;;4813368;29;20141;-89
2022/12/12 02:06:56;;;;;;;17.75;7.00;;;9.30;99.90;;;;;;4813217;29;20030;-90
2022/12/12 02:09:24;;;;;;;12.75;6.38;;;9.30;99.90;;;;;;4813849;29;20033;-89
2022/12/12 02:11:54;;;;;;;13.43;6.93;;;9.20;99.90;;;;;;4813184;29;20026;-90
2022/12/12 02:14:31;;;;;;;9.80;6.40;;;9.20;99.90;;;;;;4809480;29;20054;-90
2022/12/12 02:17:07;;;;;;;20.00;7.28;;;9.20;99.90;;;;;;4809687;29;20069;-89
2022/12/12 02:20:12;;;;;;;14.80;6.93;;;9.20;99.90;;;;;;4794412;29;20551;-90
2022/12/12 02:23:22;;;;;;;13.57;6.38;;;9.30;99.90;;;;;;4794357;29;20103;-89
2022/12/12 02:26:22;;;;;;;16.27;6.35;;;9.30;99.90;;;;;;4794288;29;20038;-89
2022/12/12 02:29:07;;;;;;;12.00;7.18;;;9.20;99.90;;;;;;4824523;29;20038;-89
2022/12/12 02:31:47;;;;;;;15.82;6.88;;;9.20;99.90;;;;;;4793646;29;20043;-90
2022/12/12 02:34:32;;;;;;;16.52;6.82;;;9.20;99.90;;;;;;4794162;29;20081;-89
2022/12/12 02:37:11;;;;;;;10.77;6.35;;;9.30;99.90;;;;;;4794407;29;20093;-89
2022/12/12 02:40:12;;;;;;;18.70;6.97;;;9.20;99.90;;;;;;4794038;29;20041;-91
2022/12/12 02:42:59;;;;;;;18.88;6.88;;;9.20;99.90;;;;;;4824244;29;20069;-91
2022/12/12 02:45:40;;;;;;;12.20;6.75;;;9.20;99.90;;;;;;4821368;29;20073;-90
2022/12/12 02:48:28;;;;;;;18.38;6.95;;;9.20;99.90;;;;;;4791057;29;20410;-90
2022/12/12 02:50:59;;;;;;;14.38;7.40;;;9.30;99.90;;;;;;4822665;29;20384;-90
2022/12/12 02:53:29;;;;;;;16.00;7.07;;;9.30;99.90;;;;;;4812079;29;20030;-90
2022/12/12 02:56:05;;;;;;;14.40;6.05;;;9.40;99.90;;;;;;4812025;29;20049;-91
2022/12/12 02:58:37;;;;;;;19.13;6.63;;;9.50;99.90;;;;;;4811969;29;20034;-89
2022/12/12 03:01:37;;;;;;;18.15;6.55;;;9.60;99.90;;;;;;4827323;29;20046;-89
2022/12/12 03:10:16;;;;;;;17.92;6.13;;;9.80;99.90;;;;;;4827044;29;20520;-89
2022/12/12 03:12:59;;;;;;;16.25;6.55;;;9.70;99.90;;;;;;4811701;29;20030;-90
2022/12/12 03:15:33;;;;;;;13.57;6.63;;;9.50;99.90;;;;;;4813378;29;20078;-90
2022/12/12 03:18:09;;;;;;;13.52;6.90;;;9.40;99.90;;;;;;4830550;29;20128;-89
2022/12/12 03:20:49;;;;;;;12.00;6.70;;;9.20;99.90;;;;;;4830950;29;20042;-90
2022/12/12 03:23:40;;;;;;;11.57;6.75;;;9.20;99.90;;;;;;4830568;29;20132;-89
2022/12/12 03:26:26;;;;;;;14.65;6.82;;;9.10;99.90;;;;;;4830363;29;20424;-91
2022/12/12 03:29:14;;;;;;;12.75;7.15;;;9.10;99.90;;;;;;4831022;29;20034;-89
2022/12/12 03:31:45;;;;;;;17.10;6.55;;;9.10;99.90;;;;;;4830362;29;20491;-89
2022/12/12 03:34:26;;;;;;;21.75;7.53;;;9.10;99.90;;;;;;4830253;29;20128;-90
2022/12/12 03:37:06;;;;;;;15.27;6.85;;;9.10;99.90;;;;;;4830351;29;20034;-90
2022/12/12 03:40:05;;;;;;;17.40;7.15;;;9.10;99.90;;;;;;4830265;29;20037;-89
2022/12/12 03:42:51;;;;;;;17.13;6.45;;;9.10;99.90;;;;;;4833941;29;20049;-91
2022/12/12 03:45:26;;;;;;;16.48;6.28;;;9.20;99.90;;;;;;4833872;29;20555;-90
2022/12/12 03:48:03;;;;;;;13.77;6.20;;;9.10;99.90;;;;;;4849245;29;20479;-90
2022/12/12 03:50:41;;;;;;;15.82;6.75;;;9.10;99.90;;;;;;4833573;29;20054;-90
2022/12/12 03:53:13;;;;;;;17.92;7.10;;;9.10;99.90;;;;;;4833830;29;20025;-90
2022/12/12 03:56:09;;;;;;;13.43;6.93;;;9.00;99.90;;;;;;4833704;29;20128;-89
2022/12/12 03:58:54;;;;;;;12.23;6.72;;;9.00;99.90;;;;;;4803294;29;20492;-91
2022/12/12 04:01:27;;;;;;;12.45;6.85;;;9.20;99.90;;;;;;4833559;29;20049;-89
2022/12/12 04:03:54;;;;;;;18.63;7.00;;;9.20;99.90;;;;;;4833537;29;20124;-90
2022/12/12 04:06:37;;;;;;;15.68;6.90;;;9.20;99.90;;;;;;4833645;29;20041;-90
2022/12/12 04:15:30;;;;;;;16.48;7.00;;;9.20;99.90;;;;;;4848578;29;20033;-91
2022/12/12 04:18:15;;;;;;;15.43;6.38;;;9.20;99.90;;;;;;4833307;29;20086;-90
2022/12/12 04:23:58;;;;;;;16.02;6.72;;;9.30;99.90;;;;;;4848288;29;20037;-90
2022/12/12 04:26:38;;;;;;;22.10;6.95;;;9.30;99.90;;;;;;4833318;29;20037;-89
2022/12/12 04:29:32;;;;;;;15.63;6.50;;;9.30;99.90;;;;;;4833108;29;20487;-90
2022/12/12 04:32:37;;;;;;;13.40;6.72;;;9.30;99.90;;;;;;4832949;29;20125;-90
2022/12/12 04:35:13;;;;;;;17.08;6.88;;;9.30;99.90;;;;;;4838677;29;20120;-89
2022/12/12 04:37:59;;;;;;;20.55;6.93;;;9.30;99.90;;;;;;4836113;29;20045;-89
2022/12/12 04:40:36;;;;;;;16.77;6.75;;;9.30;99.90;;;;;;4843367;29;20085;-90
2022/12/12 04:43:13;;;;;;;13.02;7.22;;;9.20;99.90;;;;;;4843861;29;20046;-89
2022/12/12 04:45:56;;;;;;;16.58;7.22;;;9.20;99.90;;;;;;4843849;29;20041;-89
2022/12/12 04:48:31;;;;;;;19.50;7.85;;;9.30;99.90;;;;;;4843783;29;20033;-89
2022/12/12 04:50:59;;;;;;;20.08;7.50;;;9.30;99.90;;;;;;4842516;29;20522;-89
2022/12/12 04:53:33;;;;;;;13.82;7.55;;;9.30;99.90;;;;;;4834976;29;20041;-90
2022/12/12 04:56:04;;;;;;;14.43;6.97;;;9.30;99.90;;;;;;4849905;29;20065;-92
2022/12/12 04:58:31;;;;;;;13.38;7.20;;;9.30;99.90;;;;;;4853802;29;20034;-90
2022/12/12 05:01:11;;;;;;;14.02;7.50;;;9.30;99.90;;;;;;4838502;29;20395;-89
2022/12/12 05:03:55;;;;;;;17.63;8.68;;;9.30;99.90;;;;;;4832995;29;20037;-91
2022/12/12 05:06:31;;;;;;;15.05;9.07;;;9.30;99.90;;;;;;4832500;29;20040;-89
2022/12/12 05:08:59;;;;;;;23.25;9.20;;;9.30;99.90;;;;;;4847751;29;20182;-89
2022/12/12 05:11:26;;;;;;;23.00;9.10;;;9.30;99.90;;;;;;4832320;29;20030;-92
2022/12/12 05:13:53;;;;;;;18.23;7.57;;;9.40;99.90;;;;;;4832485;29;20036;-89
2022/12/12 05:16:28;;;;;;;15.30;7.45;;;9.40;99.90;;;;;;4832305;29;20116;-91
2022/12/12 05:18:54;;;;;;;13.07;7.90;;;9.40;99.90;;;;;;4832142;29;20132;-91
2022/12/12 05:21:21;;;;;;;18.13;6.95;;;9.40;99.90;;;;;;4847924;29;20045;-89
2022/12/12 05:23:48;;;;;;;19.85;7.50;;;9.40;99.90;;;;;;4832499;29;20033;-92
2022/12/12 05:26:35;;;;;;;19.92;7.53;;;9.40;99.90;;;;;;4847731;29;20034;-88
2022/12/12 05:29:03;;;;;;;10.35;6.65;;;9.30;99.90;;;;;;4832419;29;20096;-89
2022/12/12 05:31:30;;;;;;;10.45;6.22;;;9.30;99.90;;;;;;4832152;29;20033;-89
2022/12/12 05:33:57;;;;;;;15.57;6.35;;;9.30;99.90;;;;;;4832167;29;20507;-90
2022/12/12 05:36:23;;;;;;;13.32;6.95;;;9.30;99.90;;;;;;4835042;29;20163;-90
2022/12/12 05:38:50;;;;;;;16.67;6.75;;;9.30;99.90;;;;;;4832232;29;20037;-90
2022/12/12 05:41:16;;;;;;;11.80;7.30;;;9.40;99.90;;;;;;4831968;29;20038;-90
2022/12/12 05:43:46;;;;;;;15.77;7.05;;;9.40;99.90;;;;;;4831861;29;20121;-90
2022/12/12 05:46:14;;;;;;;16.15;7.82;;;9.40;99.90;;;;;;4831774;29;20036;-89
2022/12/12 05:48:40;;;;;;;14.43;7.00;;;9.40;99.90;;;;;;4832197;29;20041;-90
2022/12/12 05:51:07;;;;;;;13.25;7.22;;;9.50;99.90;;;;;;4831570;29;20060;-89
2022/12/12 05:53:34;;;;;;;19.10;7.22;;;9.40;99.90;;;;;;4831721;29;20034;-90
2022/12/12 05:56:01;;;;;;;15.30;7.07;;;9.50;99.90;;;;;;4831726;29;20357;-90
2022/12/12 05:58:27;;;;;;;13.18;6.90;;;9.50;99.90;;;;;;4832420;29;20045;-91
2022/12/12 06:00:54;;;;;;;12.35;6.75;;;9.50;99.90;;;;;;4831529;29;20030;-90
2022/12/12 06:03:21;;;;;;;19.73;7.15;;;9.60;99.90;;;;;;4831694;29;20045;-90
2022/12/12 06:05:47;;;;;;;11.75;7.38;;;9.60;99.90;;;;;;4830862;29;20033;-91
2022/12/12 06:08:17;;;;;;;15.40;6.90;;;9.60;99.90;;;;;;4831449;29;20059;-89
2022/12/12 06:10:44;;;;;;;13.80;7.45;;;9.60;99.90;;;;;;4831479;29;20685;-91
2022/12/12 06:13:11;;;;;;;14.02;6.85;;;9.60;99.90;;;;;;4831382;29;20040;-90
2022/12/12 06:15:39;;;;;;;10.50;6.57;;;9.60;99.90;;;;;;4831624;29;20083;-90
2022/12/12 06:18:06;;;;;;;12.43;7.22;;;9.60;99.90;;;;;;4831335;29;20030;-91
2022/12/12 06:20:33;;;;;;;16.38;8.00;;;9.70;99.90;;;;;;4831542;29;20033;-91
2022/12/12 06:23:03;;;;;;;20.30;7.22;;;9.70;99.90;;;;;;4831039;29;20485;-90
2022/12/12 06:25:29;;;;;;;13.40;6.28;;;9.70;99.90;;;;;;4831270;29;20034;-89
2022/12/12 06:27:56;;;;;;;13.38;7.10;;;9.70;99.90;;;;;;4831158;29;20025;-91
2022/12/12 06:30:23;;;;;;;13.05;7.05;;;9.70;99.90;;;;;;4831170;29;20032;-89
2022/12/12 06:32:50;;;;;;;22.13;7.70;;;9.70;99.90;;;;;;4831312;29;20033;-89
2022/12/12 06:35:17;;;;;;;10.13;7.05;;;9.80;99.90;;;;;;4831376;29;20033;-89
2022/12/12 06:37:43;;;;;;;13.45;7.88;;;9.80;99.90;;;;;;4832841;29;20319;-89
2022/12/12 06:40:14;;;;;;;15.73;8.02;;;9.80;99.90;;;;;;4831774;29;20051;-91
2022/12/12 06:42:41;;;;;;;15.45;7.85;;;9.90;99.90;;;;;;4836440;29;20519;-91
2022/12/12 06:45:07;;;;;;;16.58;8.40;;;10.00;99.90;;;;;;4831672;29;20030;-90
2022/12/12 06:47:34;;;;;;;19.52;8.20;;;10.10;99.90;;;;;;4830845;29;20029;-90
2022/12/12 06:50:00;;;;;;;23.45;7.78;;;10.20;99.90;;;;;;4830840;29;20065;-90
2022/12/12 06:52:27;;;;;;;20.75;7.97;;;10.30;99.90;;;;;;4831118;29;20497;-90
2022/12/12 06:54:55;;;;;;;11.65;7.07;;;10.40;99.90;;;;;;4816228;29;20487;-90
2022/12/12 06:57:22;;;;;;;20.15;7.80;;;10.50;99.90;;;;;;4831982;29;20129;-90
2022/12/12 06:59:50;;;;;;;17.02;7.82;;;10.50;99.90;;;;;;4831040;29;20060;-91
2022/12/12 07:02:29;;;;;;;20.45;8.75;;;10.60;99.90;;;;;;4831001;29;20049;-89
2022/12/12 07:04:57;;;;;;;25.00;8.88;;;10.60;99.90;;;;;;4830654;29;20030;-91
2022/12/12 07:07:24;;;;;;;12.57;8.43;;;10.70;99.90;;;;;;4830782;29;20037;-90
2022/12/12 07:09:50;;;;;;;17.98;9.27;;;10.80;99.90;;;;;;4830800;29;20085;-90
2022/12/12 07:12:17;;;;;;;20.38;9.48;;;10.80;99.90;;;;;;4830502;29;20029;-89
2022/12/12 07:14:43;;;;;;;14.65;8.88;;;10.90;99.90;;;;;;4830761;29;20101;-89
2022/12/12 07:17:10;;;;;;;18.75;9.30;;;10.90;99.90;;;;;;4830477;29;20124;-91
2022/12/12 07:19:39;;;;;;;22.20;10.02;;;10.90;99.90;;;;;;4830632;29;20034;-89
2022/12/12 07:22:06;;;;;;;20.15;10.18;;;11.00;99.90;;;;;;4830333;29;20049;-91
2022/12/12 07:25:10;;;;;;;16.60;9.50;;;11.20;99.90;;;;;;4830496;29;20053;-90
2022/12/12 07:27:37;;;;;;;20.52;9.25;;;11.20;99.90;;;;;;4830498;29;20025;-91
2022/12/12 07:30:07;;;;;;;25.40;10.80;;;11.30;99.90;;;;;;4830340;29;20037;-91
2022/12/12 07:32:34;;;;;;;17.77;9.95;;;11.30;99.90;;;;;;4830309;29;20038;-90
2022/12/12 07:35:01;;;;;;;25.17;10.77;;;11.30;99.90;;;;;;4830419;29;20045;-93
2022/12/12 07:37:27;;;;;;;21.15;9.43;;;11.40;99.90;;;;;;4831171;29;20030;-93
2022/12/12 07:39:54;;;;;;;15.10;8.68;;;11.40;99.90;;;;;;4830322;29;20030;-92
2022/12/12 07:42:20;;;;;;;23.08;9.57;;;11.40;99.90;;;;;;4830256;29;20045;-93
2022/12/12 07:44:46;;;;;;;17.65;9.95;;;11.40;99.90;;;;;;4830364;29;20090;-92
2022/12/12 07:47:13;;;;;;;18.50;9.38;;;11.50;99.90;;;;;;4830048;29;20056;-93
2022/12/12 07:49:39;;;;;;;17.10;9.00;;;11.60;99.90;;;;;;4829935;29;20045;-91
2022/12/12 07:52:06;;;;;;;16.98;9.48;;;11.60;99.90;;;;;;4830195;29;20120;-91
2022/12/12 07:54:33;;;;;;;19.02;9.07;;;11.70;99.90;;;;;;4830360;29;20067;-92
2022/12/12 07:57:00;;;;;;;18.85;8.98;;;11.80;99.90;;;;;;4827567;29;20033;-94
2022/12/12 07:59:26;;;;;;;18.67;9.73;;;11.80;99.90;;;;;;4829810;29;20082;-93
2022/12/12 08:01:56;;;;;;;21.40;11.13;;;11.70;99.90;;;;;;4830232;29;20128;-92
2022/12/12 08:04:22;;;;;;;22.85;10.50;;;11.70;99.90;;;;;;4829856;29;20033;-92
2022/12/12 08:06:48;;;;;;;23.27;10.30;;;11.70;99.90;;;;;;4829957;29;20053;-93
2022/12/12 08:09:16;;;;;;;18.20;10.50;;;11.60;99.90;;;;;;4829919;29;20116;-92
2022/12/12 08:11:43;;;;;;;23.45;10.85;;;11.60;99.90;;;;;;4829917;29;20483;-92
2022/12/12 08:14:09;;;;;;;19.42;11.02;;;11.70;99.90;;;;;;4829879;29;20033;-92
2022/12/12 08:16:35;;;;;;;24.33;10.90;;;11.70;99.90;;;;;;4829782;29;20026;-92
2022/12/12 08:19:08;;;;;;;23.65;10.48;;;11.70;99.90;;;;;;4830011;29;20488;-93
2022/12/12 08:21:35;;;;;;;19.55;9.43;;;11.70;99.90;;;;;;4829911;29;20120;-93
2022/12/12 08:24:04;;;;;;;16.73;8.13;;;11.80;99.90;;;;;;4829846;29;20517;-92
2022/12/12 08:26:31;;;;;;;14.75;7.45;;;11.80;99.90;;;;;;4829726;29;20029;-92
2022/12/12 08:29:03;;;;;;;16.27;7.85;;;11.80;99.90;;;;;;4830672;29;20037;-93
2022/12/12 08:31:31;;;;;;;10.35;7.20;;;11.90;99.90;;;;;;4833469;29;20428;-91
2022/12/12 08:34:00;;;;;;;19.00;7.65;;;11.90;99.90;;;;;;4834276;29;20037;-92
2022/12/12 08:36:29;;;;;;;19.17;8.65;;;12.00;99.90;;;;;;4832948;29;20084;-92
2022/12/12 08:39:00;;;;;;;17.73;7.32;;;12.10;99.90;;;;;;4833174;29;20034;-91
2022/12/12 08:41:27;;;;;;;14.73;8.10;;;12.20;99.90;;;;;;4833082;29;20101;-92
2022/12/12 08:43:53;;;;;;;18.83;8.38;;;12.40;99.90;;;;;;4832793;29;20041;-92
2022/12/12 08:46:21;;;;;;;16.23;7.78;;;12.50;99.90;;;;;;4833411;29;20161;-93
2022/12/12 08:48:47;;;;;;;18.25;7.75;;;12.60;99.90;;;;;;4832704;29;20029;-93
2022/12/12 08:51:15;;;;;;;20.73;8.88;;;12.60;99.90;;;;;;4832786;29;20129;-91
2022/12/12 08:53:46;;;;;;;19.85;8.43;;;12.60;99.90;;;;;;4832707;29;20033;-92
2022/12/12 08:56:13;;;;;;;15.65;8.40;;;12.70;99.90;;;;;;4832676;29;20037;-93
2022/12/12 08:58:40;;;;;;;16.73;8.55;;;12.90;99.90;;;;;;4832684;29;20052;-93
2022/12/12 09:01:18;;;;;;;19.52;8.82;;;13.00;99.90;;;;;;4832458;29;20044;-93
2022/12/12 09:03:45;;;;;;;19.80;9.60;;;13.00;99.90;;;;;;4832850;29;20045;-94
2022/12/12 09:06:13;;;;;;;17.70;8.38;;;13.10;99.90;;;;;;4832647;29;20041;-92
2022/12/12 09:08:39;;;;;;;15.23;8.93;;;13.10;99.90;;;;;;4832357;29;20061;-93
2022/12/12 09:11:06;;;;;;;14.43;8.10;;;13.10;99.90;;;;;;4832295;29;20081;-94
2022/12/12 09:13:33;;;;;;;14.95;7.70;;;13.30;99.90;;;;;;4832480;29;20030;-91
2022/12/12 09:16:00;;;;;;;12.98;6.90;;;13.30;99.90;;;;;;4832305;29;20041;-93
2022/12/12 09:18:27;;;;;;;13.77;7.70;;;13.30;99.90;;;;;;4832341;29;20028;-92
2022/12/12 09:20:55;;;;;;;17.98;8.38;;;13.30;99.90;;;;;;4832222;29;20394;-93
2022/12/12 09:23:24;;;;;;;16.58;7.82;;;13.30;99.90;;;;;;4835769;29;20072;-92
2022/12/12 09:25:56;;;;;;;11.63;7.78;;;13.20;99.90;;;;;;4840445;29;20116;-94
2022/12/12 09:28:33;;;;;;;18.08;9.65;;;13.20;99.90;;;;;;4841140;29;20037;-94
2022/12/12 09:31:06;;;;;;;24.83;9.20;;;13.10;99.90;;;;;;4869648;24;20068;-95
2022/12/12 09:33:34;;;;;;;19.20;9.33;;;13.00;99.90;;;;;;4853916;29;20097;-95
2022/12/12 09:36:03;;;;;;;22.02;10.07;;;13.00;99.90;;;;;;4853952;29;20032;-94
2022/12/12 09:38:30;;;;;;;22.67;11.18;;;13.00;99.90;;;;;;4851600;29;20048;-95
2022/12/12 09:41:19;;;;;;;18.50;10.30;;;13.00;99.90;;;;;;4850611;29;20029;-95
2022/12/12 09:44:09;;;;;;;21.35;9.48;;;13.10;99.90;;;;;;4866741;29;20049;-95
2022/12/12 09:46:43;;;;;;;23.98;9.68;;;13.00;99.90;;;;;;4867422;29;20037;-94
2022/12/12 09:49:32;;;;;;;20.15;11.10;;;13.00;99.90;;;;;;4867025;29;20485;-94
2022/12/12 09:52:01;;;;;;;19.88;9.57;;;13.00;99.90;;;;;;4855168;29;20037;-94
2022/12/12 09:54:27;;;;;;;27.80;10.50;;;13.00;99.90;;;;;;4853804;29;20060;-93
2022/12/12 09:57:37;;;;;;;16.88;8.30;;;13.00;99.90;;;;;;4858396;29;20033;-94
2022/12/12 10:00:13;;;;;;;17.55;8.02;;;13.10;99.90;;;;;;4796550;29;20066;-94
2022/12/12 10:02:59;;;;;;;17.45;8.30;;;13.10;99.90;;;;;;4780636;29;20502;-95
2022/12/12 10:05:47;;;;;;;15.57;8.70;;;13.10;99.90;;;;;;4792447;29;20123;-94
2022/12/12 10:08:22;;;;;;;24.45;9.70;;;13.10;99.90;;;;;;4795925;29;20111;-95
2022/12/12 10:11:03;;;;;;;19.65;10.10;;;13.10;99.90;;;;;;4781145;29;20035;-94
2022/12/12 10:16:41;;;;;;;15.63;9.15;;;13.20;99.90;;;;;;4860865;29;20046;-94
2022/12/12 10:19:24;;;;;;;20.77;9.80;;;13.30;99.90;;;;;;4846779;29;20042;-93
2022/12/12 10:21:53;;;;;;;19.58;9.93;;;13.30;99.90;;;;;;4851915;29;20089;-93
2022/12/12 10:24:38;;;;;;;18.20;10.13;;;13.20;99.90;;;;;;4850010;29;20025;-93
2022/12/12 10:27:11;;;;;;;;;;;13.20;99.90;;;;;;4865450;29;20043;-95
2022/12/12 10:29:42;;;;;;;24.65;9.70;;;13.10;99.90;;;;;;4849792;29;20006;-92
2022/12/12 10:32:09;;;;;;;22.67;10.55;;;13.10;99.90;;;;;;4865872;29;20036;-93
2022/12/12 10:34:56;;;;;;;15.18;9.18;;;13.10;99.90;;;;;;4849943;29;20031;-93
2022/12/12 10:38:02;;;;;;;17.15;8.13;;;13.10;99.90;;;;;;4849344;29;20029;-93
2022/12/12 10:40:48;;;;;;;18.30;9.07;;;13.20;99.90;;;;;;4865465;29;20029;-93
2022/12/12 10:43:23;;;;;;;15.55;9.18;;;13.10;99.90;;;;;;4871666;29;20056;-93
2022/12/12 10:45:58;;;;;;;24.58;9.38;;;13.20;99.90;;;;;;4849979;29;20495;-94
2022/12/12 10:48:26;;;;;;;17.83;8.10;;;13.10;99.90;;;;;;4864807;29;20025;-93
2022/12/12 10:51:01;;;;;;;15.30;7.28;;;13.10;99.90;;;;;;4849415;29;20033;-93
2022/12/12 10:53:28;;;;;;;20.33;8.30;;;13.10;99.90;;;;;;4849739;29;20041;-94
2022/12/12 10:56:05;;;;;;;21.00;8.20;;;13.10;99.90;;;;;;4850186;29;20029;-94
2022/12/12 10:58:38;;;;;;;16.40;7.53;;;13.10;99.90;;;;;;4864826;29;20029;-95
2022/12/12 11:01:12;;;;;;;181.07;66.03;;;13.10;99.90;;;;;;4864769;29;20498;-94
2022/12/12 11:03:43;;;;;;;54.58;30.05;;;13.10;99.90;;;;;;4849474;29;20041;-94
2022/12/12 11:06:52;;;;;;;26.17;12.18;;;13.00;99.90;;;;;;4849254;29;20033;-94
2022/12/12 11:09:24;;;;;;;89.88;46.67;;;12.90;99.90;;;;;;4844638;29;20089;-93
2022/12/12 11:12:13;;;;;;;28.30;13.77;;;12.80;99.90;;;;;;4849540;29;20032;-94
2022/12/12 11:14:49;;;;;;;26.48;13.27;;;12.80;99.90;;;;;;4848868;29;20041;-93
2022/12/12 11:17:30;;;;;;;19.48;10.48;;;12.70;99.90;;;;;;4851777;29;20033;-92
2022/12/12 11:20:00;;;;;;;8.15;5.22;;;12.50;99.90;;;;;;4868084;29;20021;-92
2022/12/12 11:22:32;;;;;;;12.30;5.57;;;12.40;99.90;;;;;;4870086;29;20046;-93
2022/12/12 11:24:59;;;;;;;11.05;7.25;;;12.30;99.90;;;;;;4860306;29;20037;-93
2022/12/12 11:27:38;;;;;;;15.38;5.65;;;12.20;99.90;;;;;;4852194;29;20067;-93
2022/12/12 11:30:20;;;;;;;15.63;7.07;;;12.30;99.90;;;;;;4849826;29;20029;-93
2022/12/12 11:32:52;;;;;;;17.35;6.00;;;12.30;99.90;;;;;;4848750;29;20145;-94
2022/12/12 11:35:44;;;;;;;14.43;5.57;;;12.40;99.90;;;;;;4849195;29;20041;-92
2022/12/12 11:38:19;;;;;;;12.20;5.03;;;12.40;99.90;;;;;;4849456;29;20056;-93
2022/12/12 11:40:59;;;;;;;9.05;5.18;;;12.30;99.90;;;;;;4849131;29;20025;-93
2022/12/12 11:43:29;;;;;;;12.85;5.43;;;12.30;99.90;;;;;;4849078;29;20068;-93
2022/12/12 11:46:13;;;;;;;15.70;5.30;;;12.30;99.90;;;;;;4849065;29;20388;-93
2022/12/12 11:48:51;;;;;;;13.20;5.40;;;12.30;99.90;;;;;;4863957;29;20132;-92
2022/12/12 11:51:32;;;;;;;27.40;13.50;;;12.20;99.90;;;;;;4864038;29;20048;-94
2022/12/12 11:54:01;;;;;;;18.20;8.20;;;12.20;99.90;;;;;;4863867;29;20033;-92
2022/12/12 11:56:30;;;;;;;11.32;5.20;;;12.10;99.90;;;;;;4848565;29;20032;-93
2022/12/12 11:59:22;;;;;;;13.82;7.43;;;11.90;99.90;;;;;;4848522;29;20132;-93
2022/12/12 12:02:13;;;;;;;20.42;7.50;;;11.90;99.90;;;;;;4848453;29;20036;-93
2022/12/12 12:05:11;;;;;;;9.43;5.45;;;11.90;99.90;;;;;;4866192;29;20037;-93
2022/12/12 12:07:56;;;;;;;14.48;6.88;;;11.80;99.90;;;;;;4853235;29;20057;-94
2022/12/12 12:10:40;;;;;;;14.05;5.90;;;11.80;99.90;;;;;;4852384;29;20039;-95
2022/12/12 12:13:40;;;;;;;11.25;5.28;;;11.80;99.90;;;;;;4852155;29;20033;-94
2022/12/12 12:16:19;;;;;;;12.25;6.22;;;11.80;99.90;;;;;;4851659;29;20052;-93
2022/12/12 12:18:48;;;;;;;12.45;5.05;;;11.80;99.90;;;;;;4867464;29;20048;-94
2022/12/12 12:21:51;;;;;;;7.53;5.20;;;11.80;99.90;;;;;;4853634;29;20025;-92
2022/12/12 12:24:36;;;;;;;13.93;5.55;;;11.70;99.90;;;;;;4853036;29;20055;-93
2022/12/12 12:27:19;;;;;;;10.32;6.53;;;11.70;99.90;;;;;;4868770;29;20041;-94
2022/12/12 12:29:52;;;;;;;10.13;6.75;;;11.60;99.90;;;;;;4853075;29;20029;-94
2022/12/12 12:32:55;;;;;;;9.77;7.18;;;11.60;99.90;;;;;;4853845;29;20060;-93
2022/12/12 12:35:41;;;;;;;15.25;8.43;;;11.50;99.90;;;;;;4852171;29;20104;-93
2022/12/12 12:38:10;;;;;;;10.55;7.00;;;11.50;99.90;;;;;;4852837;29;20037;-93
2022/12/12 12:40:52;;;;;;;10.55;6.35;;;11.40;99.90;;;;;;4852653;29;20025;-93
2022/12/12 12:43:37;;;;;;;9.55;6.70;;;11.50;99.90;;;;;;4868873;29;20052;-94
2022/12/12 12:46:28;;;;;;;12.80;7.30;;;11.50;99.90;;;;;;4928085;24;20148;-93
2022/12/12 12:49:02;;;;;;;9.68;7.30;;;11.60;99.90;;;;;;4834968;29;20034;-94
2022/12/12 12:51:38;;;;;;;10.07;6.90;;;11.60;99.90;;;;;;4833445;29;20066;-93
2022/12/12 12:54:33;;;;;;;10.73;7.35;;;11.70;99.90;;;;;;4848562;29;20061;-94
2022/12/12 13:01:08;;;;;;;14.63;8.80;;;11.70;99.90;;;;;;4818493;29;20172;-95
2022/12/12 13:03:45;;;;;;;18.55;11.20;;;11.70;99.90;;;;;;4781189;29;20511;-93
2022/12/12 13:06:29;;;;;;;22.60;13.57;;;11.70;99.90;;;;;;4793222;29;20092;-92
2022/12/12 13:09:23;;;;;;;19.30;10.25;;;11.80;99.90;;;;;;4792822;29;20057;-93
2022/12/12 13:12:13;;;;;;;17.23;9.52;;;11.80;99.90;;;;;;4774239;29;20039;-92
2022/12/12 13:14:47;;;;;;;13.95;9.10;;;11.90;99.90;;;;;;4774149;29;20047;-92
2022/12/12 13:17:57;;;;;;;24.05;11.10;;;11.80;99.90;;;;;;4777611;29;20050;-93
2022/12/12 13:20:25;;;;;;;20.08;10.63;;;11.80;99.90;;;;;;4792889;29;20058;-94
2022/12/12 13:22:56;;;;;;;14.23;9.20;;;11.80;99.90;;;;;;4777323;29;20051;-93
2022/12/12 13:25:49;;;;;;;15.57;9.52;;;11.80;99.90;;;;;;4777819;29;20485;-94
2022/12/12 13:28:23;;;;;;;18.88;9.60;;;11.80;99.90;;;;;;4777554;29;20099;-93
2022/12/12 13:31:06;;;;;;;18.55;8.25;;;11.80;99.90;;;;;;4777653;29;20046;-94
2022/12/12 13:33:46;;;;;;;20.60;8.88;;;11.80;99.90;;;;;;4777495;29;20039;-95
2022/12/12 13:36:24;;;;;;;23.13;7.40;;;11.80;99.90;;;;;;4807797;29;20041;-94
2022/12/12 13:39:00;;;;;;;12.60;6.78;;;11.70;99.90;;;;;;4847503;29;20047;-93
2022/12/12 13:41:35;;;;;;;15.60;9.23;;;11.70;99.90;;;;;;4847600;29;20406;-93